createdAt,value
2023-05-02T00:02:25.769Z,100067.00
2023-05-02T00:04:52.784Z,100064.00
2023-05-02T00:07:20.614Z,100063.00
2023-05-02T00:09:47.547Z,100065.00
2023-05-02T00:12:14.406Z,100070.00
2023-05-02T00:14:41.234Z,100056.00
2023-05-02T00:17:08.235Z,100056.00
2023-05-02T00:19:41.283Z,100054.00
2023-05-02T00:22:08.399Z,100055.00
2023-05-02T00:24:35.235Z,100057.00
2023-05-02T00:27:02.275Z,100056.00
2023-05-02T00:29:29.151Z,100063.00
2023-05-02T00:31:56.830Z,100055.00
2023-05-02T00:34:32.863Z,100056.00
2023-05-02T00:37:00.049Z,100046.00
2023-05-02T00:39:26.900Z,100051.00
2023-05-02T00:42:00.378Z,100049.00
2023-05-02T00:44:28.121Z,100047.00
2023-05-02T00:46:56.730Z,100043.00
2023-05-02T00:49:24.737Z,100010.00
2023-05-02T00:51:51.710Z,100025.00
2023-05-02T00:54:18.600Z,100030.00
2023-05-02T00:56:46.477Z,100030.00
2023-05-02T00:59:15.360Z,100022.00
2023-05-02T01:02:22.351Z,100013.00
2023-05-02T01:05:16.959Z,100026.00
2023-05-02T01:08:02.985Z,100017.00
2023-05-02T01:10:36.678Z,100019.00
2023-05-02T01:13:17.908Z,100017.00
2023-05-02T01:15:47.416Z,100017.00
2023-05-02T01:18:18.592Z,100013.00
2023-05-02T01:20:50.905Z,100005.00
2023-05-02T01:23:58.278Z,100003.00
2023-05-02T01:26:41.348Z,100011.00
2023-05-02T01:29:11.504Z,100008.00
2023-05-02T01:31:46.406Z,99996.00
2023-05-02T01:34:13.440Z,99999.00
2023-05-02T01:36:47.129Z,99990.00
2023-05-02T01:39:20.922Z,99994.00
2023-05-02T01:41:52.187Z,99991.00
2023-05-02T01:44:22.895Z,99993.00
2023-05-02T01:46:53.183Z,99997.00
2023-05-02T01:49:22.684Z,99999.00
2023-05-02T01:51:51.230Z,99986.00
2023-05-02T01:54:21.407Z,99988.00
2023-05-02T01:56:50.005Z,99981.00
2023-05-02T01:59:22.668Z,99981.00
2023-05-02T02:01:52.064Z,99982.00
2023-05-02T02:04:22.113Z,99984.00
2023-05-02T02:07:02.308Z,99982.00
2023-05-02T02:09:31.316Z,99970.00
2023-05-02T02:12:12.698Z,99980.00
2023-05-02T02:14:46.299Z,99971.00
2023-05-02T02:17:25.655Z,99968.00
2023-05-02T02:19:56.223Z,99953.00
2023-05-02T02:22:27.551Z,99978.00
2023-05-02T02:24:55.653Z,99968.00
2023-05-02T02:27:22.646Z,99966.00
2023-05-02T02:29:49.683Z,99970.00
2023-05-02T02:32:16.613Z,99969.00
2023-05-02T02:34:43.582Z,99975.00
2023-05-02T02:37:27.532Z,99972.00
2023-05-02T02:40:36.023Z,99970.00
2023-05-02T02:43:34.150Z,99967.00
2023-05-02T02:46:19.649Z,99977.00
2023-05-02T02:49:27.099Z,99979.00
2023-05-02T02:52:07.698Z,99979.00
2023-05-02T02:55:06.394Z,99970.00
2023-05-02T02:57:44.914Z,99975.00
2023-05-02T03:00:27.257Z,99971.00
2023-05-02T03:02:56.871Z,99978.00
2023-05-02T03:05:24.709Z,99975.00
2023-05-02T03:07:52.379Z,99972.00
2023-05-02T03:10:19.359Z,99968.00
2023-05-02T03:12:46.224Z,99966.00
2023-05-02T03:15:58.313Z,99962.00
2023-05-02T03:18:25.269Z,99969.00
2023-05-02T03:20:52.195Z,99958.00
2023-05-02T03:23:19.049Z,99960.00
2023-05-02T03:25:45.948Z,99961.00
2023-05-02T03:28:13.061Z,99954.00
2023-05-02T03:30:40.864Z,99964.00
2023-05-02T03:33:08.976Z,99962.00
2023-05-02T03:35:35.977Z,99965.00
2023-05-02T03:38:02.855Z,99959.00
2023-05-02T03:40:29.707Z,99968.00
2023-05-02T03:42:56.542Z,99969.00
2023-05-02T03:45:23.440Z,99975.00
2023-05-02T03:47:50.306Z,99976.00
2023-05-02T03:50:18.442Z,99977.00
2023-05-02T03:52:45.335Z,99981.00
2023-05-02T03:55:12.309Z,99984.00
2023-05-02T03:57:39.160Z,99991.00
2023-05-02T04:00:07.415Z,99980.00
2023-05-02T04:02:34.327Z,99979.00
2023-05-02T04:05:01.236Z,99983.00
2023-05-02T04:07:28.605Z,99978.00
2023-05-02T04:09:55.535Z,99986.00
2023-05-02T04:12:22.458Z,99979.00
2023-05-02T04:14:49.386Z,99975.00
2023-05-02T04:17:16.373Z,99987.00
2023-05-02T04:19:43.357Z,99986.00
2023-05-02T04:22:10.228Z,99977.00
2023-05-02T04:24:37.062Z,99983.00
2023-05-02T04:27:04.061Z,99979.00
2023-05-02T04:29:30.924Z,99994.00
2023-05-02T04:31:57.790Z,99989.00
2023-05-02T04:34:24.673Z,99990.00
2023-05-02T04:36:51.546Z,99997.00
2023-05-02T04:39:18.400Z,99998.00
2023-05-02T04:41:46.292Z,99995.00
2023-05-02T04:44:13.188Z,99998.00
2023-05-02T04:46:40.321Z,99992.00
2023-05-02T04:49:07.361Z,100005.00
2023-05-02T04:51:34.523Z,100010.00
2023-05-02T04:54:01.516Z,100005.00
2023-05-02T04:56:28.480Z,100007.00
2023-05-02T04:58:55.368Z,100012.00
2023-05-02T05:01:24.120Z,100013.00
2023-05-02T05:03:51.217Z,100007.00
2023-05-02T05:06:19.269Z,100006.00
2023-05-02T05:08:46.522Z,100006.00
2023-05-02T05:11:13.509Z,100012.00
2023-05-02T05:13:40.795Z,100011.00
2023-05-02T05:16:08.130Z,100014.00
2023-05-02T05:18:40.623Z,100014.00
2023-05-02T05:21:08.894Z,100016.00
2023-05-02T05:23:37.008Z,100014.00
2023-05-02T05:26:12.082Z,100019.00
2023-05-02T05:28:39.424Z,100014.00
2023-05-02T05:31:08.489Z,100011.00
2023-05-02T05:33:39.619Z,100004.00
2023-05-02T05:36:17.203Z,100019.00
2023-05-02T05:38:44.610Z,100007.00
2023-05-02T05:41:11.497Z,100019.00
2023-05-02T05:43:38.498Z,100014.00
2023-05-02T05:46:05.838Z,100012.00
2023-05-02T05:48:32.760Z,100021.00
2023-05-02T05:51:07.346Z,100008.00
2023-05-02T05:53:34.657Z,100024.00
2023-05-02T05:56:13.949Z,100029.00
2023-05-02T05:58:42.660Z,100025.00
2023-05-02T06:01:09.649Z,100025.00
2023-05-02T06:03:36.689Z,100031.00
2023-05-02T06:06:04.591Z,100031.00
2023-05-02T06:08:31.619Z,100042.00
2023-05-02T06:10:58.499Z,100045.00
2023-05-02T06:13:26.275Z,100044.00
2023-05-02T06:15:53.196Z,100047.00
2023-05-02T06:18:20.081Z,100049.00
2023-05-02T06:20:46.942Z,100052.00
2023-05-02T06:23:13.775Z,100045.00
2023-05-02T06:25:40.728Z,100053.00
2023-05-02T06:28:07.764Z,100049.00
2023-05-02T06:30:34.642Z,100063.00
2023-05-02T06:33:04.330Z,100067.00
2023-05-02T06:35:31.421Z,100064.00
2023-05-02T06:37:58.253Z,100066.00
2023-05-02T06:40:25.285Z,100076.00
2023-05-02T06:42:52.195Z,100075.00
2023-05-02T06:45:19.667Z,100085.00
2023-05-02T06:47:46.773Z,100084.00
2023-05-02T06:50:13.723Z,100085.00
2023-05-02T06:52:40.607Z,100095.00
2023-05-02T06:55:08.109Z,100086.00
2023-05-02T06:57:35.039Z,100099.00
2023-05-02T07:00:02.341Z,100101.00
2023-05-02T07:02:29.625Z,100092.00
2023-05-02T07:04:56.573Z,100095.00
2023-05-02T07:07:23.503Z,100098.00
2023-05-02T07:09:50.453Z,100099.00
2023-05-02T07:12:17.326Z,100105.00
2023-05-02T07:14:46.887Z,100105.00
2023-05-02T07:17:16.811Z,100114.00
2023-05-02T07:19:58.512Z,100123.00
2023-05-02T07:22:26.121Z,100131.00
2023-05-02T07:25:02.554Z,100129.00
2023-05-02T07:27:30.527Z,100138.00
2023-05-02T07:29:57.753Z,100133.00
2023-05-02T07:32:27.965Z,100134.00
2023-05-02T07:34:56.284Z,100140.00
2023-05-02T07:37:23.709Z,100149.00
2023-05-02T07:39:50.641Z,100148.00
2023-05-02T07:42:17.751Z,100152.00
2023-05-02T07:44:44.925Z,100152.00
2023-05-02T07:47:12.329Z,100155.00
2023-05-02T07:49:39.677Z,100164.00
2023-05-02T07:52:08.176Z,100162.00
2023-05-02T07:54:35.890Z,100167.00
2023-05-02T07:57:05.305Z,100172.00
2023-05-02T07:59:32.269Z,100174.00
2023-05-02T08:01:59.355Z,100171.00
2023-05-02T08:04:27.113Z,100113.00
2023-05-02T08:06:55.810Z,100177.00
2023-05-02T08:09:23.327Z,100180.00
2023-05-02T08:11:50.947Z,100176.00
2023-05-02T08:14:18.353Z,100171.00
2023-05-02T08:16:46.638Z,100180.00
2023-05-02T08:19:13.880Z,100183.00
2023-05-02T08:21:40.882Z,100186.00
2023-05-02T08:24:08.185Z,100173.00
2023-05-02T08:26:35.559Z,100186.00
2023-05-02T08:29:04.713Z,100174.00
2023-05-02T08:31:32.025Z,100177.00
2023-05-02T08:33:59.250Z,100179.00
2023-05-02T08:36:28.890Z,100173.00
2023-05-02T08:38:56.076Z,100180.00
2023-05-02T08:41:24.234Z,100177.00
2023-05-02T08:43:51.674Z,100175.00
2023-05-02T08:46:18.688Z,100180.00
2023-05-02T08:48:49.833Z,100186.00
2023-05-02T08:53:47.059Z,100192.00
2023-05-02T08:56:15.496Z,100192.00
2023-05-02T08:58:42.575Z,100193.00
2023-05-02T09:01:17.470Z,100200.00
2023-05-02T09:03:47.440Z,100207.00
2023-05-02T09:06:22.985Z,100201.00
2023-05-02T09:08:54.840Z,100209.00
2023-05-02T09:11:22.480Z,100197.00
2023-05-02T09:13:52.221Z,100203.00
2023-05-02T09:16:27.280Z,100197.00
2023-05-02T09:18:59.278Z,100192.00
2023-05-02T09:21:45.463Z,100199.00
2023-05-02T09:24:21.661Z,100202.00
2023-05-02T09:27:05.227Z,100209.00
2023-05-02T09:29:39.256Z,100214.00
2023-05-02T09:32:07.304Z,100213.00
2023-05-02T09:34:35.009Z,100215.00
2023-05-02T09:37:04.110Z,100221.00
2023-05-02T09:39:31.547Z,100218.00
2023-05-02T09:41:59.550Z,100226.00
2023-05-02T09:44:37.455Z,100224.00
2023-05-02T09:47:06.707Z,100234.00
2023-05-02T09:50:02.204Z,100215.00
2023-05-02T09:52:29.199Z,100224.00
2023-05-02T09:54:57.878Z,100238.00
2023-05-02T09:57:41.792Z,100221.00
2023-05-02T10:00:10.512Z,100239.00
2023-05-02T10:02:38.888Z,100237.00
2023-05-02T10:05:11.716Z,100223.00
2023-05-02T10:07:39.726Z,100237.00
2023-05-02T10:10:11.098Z,100238.00
2023-05-02T10:12:40.415Z,100237.00
2023-05-02T10:15:15.290Z,100241.00
2023-05-02T10:17:52.048Z,100237.00
2023-05-02T10:20:32.754Z,100237.00
2023-05-02T10:23:02.167Z,100247.00
2023-05-02T10:25:30.052Z,100247.00
2023-05-02T10:28:01.736Z,100251.00
2023-05-02T10:30:31.600Z,100253.00
2023-05-02T10:33:00.949Z,100251.00
2023-05-02T10:35:28.050Z,100271.00
2023-05-02T10:37:56.536Z,100278.00
2023-05-02T10:40:23.778Z,100281.00
2023-05-02T10:42:52.434Z,100287.00
2023-05-02T10:45:38.273Z,100280.00
2023-05-02T10:48:26.837Z,100298.00
2023-05-02T10:51:01.438Z,100283.00
2023-05-02T10:53:34.019Z,100306.00
2023-05-02T10:56:25.867Z,100306.00
2023-05-02T10:59:14.151Z,100293.00
2023-05-02T11:01:42.203Z,100322.00
2023-05-02T11:04:12.354Z,100252.00
2023-05-02T11:06:57.929Z,100342.00
2023-05-02T11:09:24.918Z,100344.00
2023-05-02T11:11:52.927Z,100347.00
2023-05-02T11:14:26.331Z,100349.00
2023-05-02T11:17:02.174Z,100355.00
2023-05-02T11:19:51.808Z,100353.00
2023-05-02T11:22:21.825Z,100363.00
2023-05-02T11:24:50.670Z,100375.00
2023-05-02T11:27:30.283Z,100386.00
2023-05-02T11:30:09.138Z,100389.00
2023-05-02T11:32:49.434Z,100403.00
2023-05-02T11:35:20.268Z,100404.00
2023-05-02T11:37:59.103Z,100410.00
2023-05-02T11:40:28.774Z,100383.00
2023-05-02T11:42:59.904Z,100407.00
2023-05-02T11:45:37.217Z,100415.00
2023-05-02T11:48:08.347Z,100429.00
2023-05-02T11:50:48.754Z,100435.00
2023-05-02T11:53:22.395Z,100441.00
2023-05-02T11:56:02.297Z,100444.00
2023-05-02T11:58:33.630Z,100449.00
2023-05-02T12:01:16.484Z,100453.00
2023-05-02T12:03:44.072Z,100461.00
2023-05-02T12:06:16.125Z,100466.00
2023-05-02T12:08:45.418Z,100466.00
2023-05-02T12:11:17.172Z,100472.00
2023-05-02T12:13:49.875Z,100490.00
2023-05-02T12:16:18.398Z,100471.00
2023-05-02T12:18:47.717Z,100491.00
2023-05-02T12:21:15.506Z,100490.00
2023-05-02T12:23:43.035Z,100491.00
2023-05-02T12:26:17.745Z,100498.00
2023-05-02T12:28:52.800Z,100495.00
2023-05-02T12:31:20.150Z,100503.00
2023-05-02T12:33:48.476Z,100514.00
2023-05-02T12:36:15.784Z,100534.00
2023-05-02T12:38:59.674Z,100528.00
2023-05-02T12:41:33.702Z,100539.00
2023-05-02T12:44:01.624Z,100555.00
2023-05-02T12:46:29.541Z,100551.00
2023-05-02T12:49:12.470Z,100554.00
2023-05-02T12:51:40.854Z,100554.00
2023-05-02T12:54:07.882Z,100563.00
2023-05-02T12:56:43.692Z,100553.00
2023-05-02T12:59:29.986Z,100562.00
2023-05-02T13:01:57.695Z,100564.00
2023-05-02T13:04:41.625Z,100593.00
2023-05-02T13:07:08.606Z,100580.00
2023-05-02T13:09:35.588Z,100595.00
2023-05-02T13:12:04.488Z,100581.00
2023-05-02T13:14:31.583Z,100575.00
2023-05-02T13:16:59.396Z,100598.00
2023-05-02T13:19:29.294Z,100579.00
2023-05-02T13:21:56.218Z,100595.00
2023-05-02T13:24:23.581Z,100605.00
2023-05-02T13:26:51.429Z,100609.00
2023-05-02T13:29:18.373Z,100612.00
2023-05-02T13:31:45.253Z,100608.00
2023-05-02T13:34:12.146Z,100614.00
2023-05-02T13:36:46.022Z,100618.00
2023-05-02T13:39:14.666Z,100616.00
2023-05-02T13:41:41.868Z,100619.00
2023-05-02T13:44:09.532Z,100617.00
2023-05-02T13:46:38.013Z,100626.00
2023-05-02T13:49:05.277Z,100633.00
2023-05-02T13:51:35.571Z,100604.00
2023-05-02T13:54:02.953Z,100624.00
2023-05-02T13:56:29.816Z,100631.00
2023-05-02T13:58:56.869Z,100636.00
2023-05-02T14:01:26.549Z,100650.00
2023-05-02T14:03:53.737Z,100650.00
2023-05-02T14:06:20.765Z,100647.00
2023-05-02T14:08:47.750Z,100639.00
2023-05-02T14:11:14.676Z,100657.00
2023-05-02T14:13:41.808Z,100646.00
2023-05-02T14:16:08.861Z,100650.00
2023-05-02T14:18:36.026Z,100649.00
2023-05-02T14:21:04.478Z,100648.00
2023-05-02T14:23:31.667Z,100660.00
2023-05-02T14:25:58.595Z,100665.00
2023-05-02T14:28:27.100Z,100671.00
2023-05-02T14:30:54.285Z,100680.00
2023-05-02T14:33:21.339Z,100664.00
2023-05-02T14:35:49.295Z,100676.00
2023-05-02T14:38:19.120Z,100693.00
2023-05-02T14:40:46.674Z,100691.00
2023-05-02T14:43:14.016Z,100702.00
2023-05-02T14:45:40.895Z,100701.00
2023-05-02T14:48:09.500Z,100701.00
2023-05-02T14:50:39.665Z,100698.00
2023-05-02T14:53:07.039Z,100707.00
2023-05-02T14:55:41.081Z,100707.00
2023-05-02T14:58:11.871Z,100707.00
2023-05-02T15:03:52.441Z,100705.00
2023-05-02T15:06:32.722Z,100718.00
2023-05-02T15:08:59.931Z,100712.00
2023-05-02T15:12:54.808Z,100713.00
2023-05-02T15:15:25.065Z,100717.00
2023-05-02T15:17:53.126Z,100731.00
2023-05-02T15:20:20.446Z,100732.00
2023-05-02T15:22:47.339Z,100741.00
2023-05-02T15:25:14.297Z,100740.00
2023-05-02T15:27:42.604Z,100752.00
2023-05-02T15:30:11.055Z,100743.00
2023-05-02T15:32:38.005Z,100739.00
2023-05-02T15:39:35.874Z,100745.00
2023-05-02T15:42:06.268Z,100750.00
2023-05-02T15:44:39.485Z,100752.00
2023-05-02T15:47:06.479Z,100759.00
2023-05-02T15:49:34.533Z,100771.00
2023-05-02T15:52:02.886Z,100787.00
2023-05-02T15:54:31.809Z,100787.00
2023-05-02T15:56:58.722Z,100778.00
2023-05-02T15:59:26.020Z,100776.00
2023-05-02T16:01:52.964Z,100792.00
2023-05-02T16:04:19.919Z,100793.00
2023-05-02T16:06:46.900Z,100798.00
2023-05-02T16:09:13.755Z,100797.00
2023-05-02T16:11:40.743Z,100794.00
2023-05-02T16:14:07.618Z,100797.00
2023-05-02T16:16:34.592Z,100795.00
2023-05-02T16:23:00.977Z,100797.00
2023-05-02T16:25:27.830Z,100799.00
2023-05-02T16:28:33.561Z,100805.00
2023-05-02T16:31:07.160Z,100814.00
2023-05-02T16:33:34.179Z,100813.00
2023-05-02T16:37:25.707Z,100812.00
2023-05-02T16:39:52.845Z,100820.00
2023-05-02T16:42:19.787Z,100819.00
2023-05-02T16:44:46.682Z,100820.00
2023-05-02T16:47:13.591Z,100823.00
2023-05-02T16:49:40.560Z,100819.00
2023-05-02T16:52:07.508Z,100821.00
2023-05-02T16:54:34.543Z,100822.00
2023-05-02T16:57:02.700Z,100820.00
2023-05-02T16:59:30.562Z,100827.00
2023-05-02T17:01:57.828Z,100824.00
2023-05-02T17:04:24.895Z,100830.00
2023-05-02T17:06:56.317Z,100831.00
2023-05-02T17:09:23.293Z,100835.00
2023-05-02T17:11:50.904Z,100843.00
2023-05-02T17:14:18.276Z,100843.00
2023-05-02T17:16:45.276Z,100843.00
2023-05-02T17:19:12.214Z,100850.00
2023-05-02T17:21:39.213Z,100855.00
2023-05-02T17:24:08.013Z,100851.00
2023-05-02T17:26:35.209Z,100853.00
2023-05-02T17:29:02.288Z,100853.00
2023-05-02T17:31:29.205Z,100850.00
2023-05-02T17:33:56.116Z,100854.00
2023-05-02T17:36:22.946Z,100857.00
2023-05-02T17:38:49.821Z,100862.00
2023-05-02T17:41:17.002Z,100864.00
2023-05-02T17:43:43.927Z,100858.00
2023-05-02T17:46:11.177Z,100864.00
2023-05-02T17:48:38.455Z,100862.00
2023-05-02T17:51:07.037Z,100868.00
2023-05-02T17:53:35.416Z,100868.00
2023-05-02T17:56:04.255Z,100860.00
2023-05-02T17:58:31.997Z,100883.00
2023-05-02T18:01:08.260Z,100885.00
2023-05-02T18:03:36.150Z,100893.00
2023-05-02T18:06:03.365Z,100908.00
2023-05-02T18:08:33.074Z,100921.00
2023-05-02T18:11:00.540Z,100910.00
2023-05-02T18:13:27.699Z,100921.00
2023-05-02T18:16:01.556Z,100928.00
2023-05-02T18:18:28.998Z,100926.00
2023-05-02T18:20:55.919Z,100937.00
2023-05-02T18:23:22.875Z,100943.00
2023-05-02T18:25:49.713Z,100940.00
2023-05-02T18:28:16.590Z,100943.00
2023-05-02T18:30:43.502Z,100942.00
2023-05-02T18:33:10.618Z,100946.00
2023-05-02T18:35:37.617Z,100953.00
2023-05-02T18:38:07.736Z,100951.00
2023-05-02T18:40:34.680Z,100941.00
2023-05-02T18:43:01.679Z,100946.00
2023-05-02T18:45:28.525Z,100951.00
2023-05-02T18:47:55.684Z,100958.00
2023-05-02T18:50:23.014Z,100956.00
2023-05-02T18:52:49.976Z,100955.00
2023-05-02T18:55:18.913Z,100961.00
2023-05-02T18:57:49.756Z,100966.00
2023-05-02T19:00:17.669Z,100962.00
2023-05-02T19:02:45.077Z,100975.00
2023-05-02T19:05:12.320Z,100971.00
2023-05-02T19:07:39.267Z,100954.00
2023-05-02T19:10:06.740Z,100975.00
2023-05-02T19:12:33.718Z,100981.00
2023-05-02T19:15:01.287Z,100985.00
2023-05-02T19:17:28.630Z,100991.00
2023-05-02T19:19:58.148Z,100992.00
2023-05-02T19:22:27.645Z,100988.00
2023-05-02T19:24:55.247Z,100991.00
2023-05-02T19:27:22.233Z,101000.00
2023-05-02T19:29:53.196Z,100993.00
2023-05-02T19:32:22.523Z,100999.00
2023-05-02T19:34:49.375Z,100999.00
2023-05-02T19:37:16.222Z,101002.00
2023-05-02T19:39:43.087Z,100985.00
2023-05-02T19:42:09.918Z,100992.00
2023-05-02T19:44:36.878Z,100993.00
2023-05-02T19:47:04.083Z,101004.00
2023-05-02T19:49:30.942Z,101008.00
2023-05-02T19:51:57.831Z,101012.00
2023-05-02T19:54:24.778Z,101017.00
2023-05-02T19:56:51.723Z,101015.00
2023-05-02T19:59:18.643Z,101016.00
2023-05-02T20:01:46.721Z,101015.00
2023-05-02T20:04:13.877Z,101023.00
2023-05-02T20:06:40.985Z,101024.00
2023-05-02T20:09:07.960Z,101019.00
2023-05-02T20:11:34.866Z,101019.00
2023-05-02T20:14:01.842Z,101029.00
2023-05-02T20:16:31.434Z,101030.00
2023-05-02T20:18:58.623Z,101024.00
2023-05-02T20:21:26.774Z,101025.00
2023-05-02T20:23:53.717Z,101031.00
2023-05-02T20:26:21.058Z,101028.00
2023-05-02T20:28:47.972Z,101039.00
2023-05-02T20:31:14.856Z,101036.00
2023-05-02T20:33:45.649Z,101045.00
2023-05-02T20:36:14.740Z,101050.00
2023-05-02T20:38:43.046Z,101053.00
2023-05-02T20:41:14.885Z,101048.00
2023-05-02T20:43:44.672Z,101050.00
2023-05-02T20:46:13.424Z,101049.00
2023-05-02T20:48:40.396Z,101053.00
2023-05-02T20:51:08.711Z,101048.00
2023-05-02T20:53:39.522Z,101024.00
2023-05-02T20:56:10.080Z,101056.00
2023-05-02T20:58:36.883Z,101054.00
2023-05-02T21:01:03.789Z,101059.00
2023-05-02T21:03:32.166Z,101060.00
2023-05-02T21:06:01.961Z,101068.00
2023-05-02T21:08:28.873Z,101065.00
2023-05-02T21:10:55.972Z,101069.00
2023-05-02T21:13:22.899Z,101065.00
2023-05-02T21:15:50.349Z,101067.00
2023-05-02T21:18:17.605Z,101073.00
2023-05-02T21:20:44.549Z,101070.00
2023-05-02T21:23:11.490Z,101067.00
2023-05-02T21:25:38.792Z,101078.00
2023-05-02T21:28:06.072Z,101057.00
2023-05-02T21:30:33.174Z,101080.00
2023-05-02T21:33:00.232Z,101072.00
2023-05-02T21:35:28.635Z,101077.00
2023-05-02T21:37:55.578Z,101067.00
2023-05-02T21:40:22.443Z,101077.00
2023-05-02T21:42:49.329Z,101073.00
2023-05-02T21:45:16.262Z,101076.00
2023-05-02T21:47:43.480Z,101081.00
2023-05-02T21:50:10.782Z,101076.00
2023-05-02T21:52:37.690Z,101080.00
2023-05-02T21:55:04.895Z,101085.00
2023-05-02T21:57:31.722Z,101047.00
2023-05-02T21:59:58.539Z,101085.00
2023-05-02T22:02:25.474Z,101073.00
2023-05-02T22:04:52.499Z,101077.00
2023-05-02T22:07:19.360Z,101079.00
2023-05-02T22:09:46.559Z,101069.00
2023-05-02T22:12:13.405Z,101067.00
2023-05-02T22:14:45.295Z,101062.00
2023-05-02T22:17:13.753Z,101071.00
2023-05-02T22:19:41.862Z,101076.00
2023-05-02T22:22:08.772Z,101076.00
2023-05-02T22:24:35.669Z,101067.00
2023-05-02T22:27:02.652Z,101074.00
2023-05-02T22:29:29.902Z,101080.00
2023-05-02T22:31:56.808Z,101076.00
2023-05-02T22:34:23.817Z,101077.00
2023-05-02T22:36:50.901Z,101080.00
2023-05-02T22:39:17.810Z,101068.00
2023-05-02T22:41:44.804Z,101070.00
2023-05-02T22:44:11.717Z,101064.00
2023-05-02T22:46:39.056Z,101064.00
2023-05-02T22:49:11.597Z,101066.00
2023-05-02T22:51:40.341Z,101068.00
2023-05-02T22:54:08.083Z,101061.00
2023-05-02T22:56:35.454Z,101071.00
2023-05-02T22:59:02.413Z,101072.00
2023-05-02T23:01:29.359Z,101069.00
2023-05-02T23:03:56.515Z,101063.00
2023-05-02T23:06:23.674Z,101066.00
2023-05-02T23:08:50.751Z,101058.00
2023-05-02T23:11:17.819Z,101061.00
2023-05-02T23:13:44.866Z,101049.00
2023-05-02T23:16:11.784Z,101056.00
2023-05-02T23:18:38.714Z,101058.00
2023-05-02T23:21:05.981Z,101060.00
2023-05-02T23:23:32.829Z,101046.00
2023-05-02T23:25:59.704Z,101055.00
2023-05-02T23:28:26.728Z,101050.00
2023-05-02T23:30:53.952Z,101048.00
2023-05-02T23:33:21.168Z,101049.00
2023-05-02T23:35:48.695Z,100941.00
2023-05-02T23:38:15.940Z,101057.00
2023-05-02T23:40:43.095Z,101066.00
2023-05-02T23:43:10.864Z,101026.00
2023-05-02T23:45:37.774Z,101060.00
2023-05-02T23:48:04.829Z,101057.00
2023-05-02T23:50:32.893Z,101065.00
2023-05-02T23:52:59.950Z,101063.00
2023-05-02T23:55:27.011Z,101066.00
2023-05-02T23:57:53.913Z,101073.00
